Flight Track Log - Related Links

Times and Time Zones

All times are in EDT time to prevent confusion due to time zone crossing. See the N175CS flight status page for this flight to view local times or setup timezone preferences in your user account.

Time Position Orientation Groundspeed Altitude Reporting Facility
EDT Latitude Longitude Course Direction KTS MPH feet Rate Location/Type
Sat 09:42:42 AM 39.9256 -83.3283 238° Southwest 103 119 4,400  Level Indianapolis Center
Sat 09:43:06 AM 39.9208 -83.3392 240° Southwest 102 117 4,500  Climbing Indianapolis Center
Sat 09:43:36 AM 39.9125 -83.3619 245° Southwest 113 130 4,400  Descending Indianapolis Center
Sat 09:44:07 AM 39.9075 -83.3747 243° Southwest 107 123 4,500  Climbing Indianapolis Center
Sat 09:44:37 AM 39.8997 -83.3931 241° Southwest 102 117 4,400  Descending Indianapolis Center
Sat 09:45:09 AM 39.8931 -83.4072 238° Southwest 105 121 4,500  Climbing Indianapolis Center
Sat 09:45:56 AM 39.8800 -83.4369 240° Southwest 105 121 4,400  Descending Indianapolis Center
Sat 09:46:11 AM 39.8781 -83.4397 228° Southwest 104 120 4,500  Climbing Indianapolis Center
Sat 09:46:32 AM 39.8722 -83.4578 247° West 107 123 4,400  Descending Indianapolis Center
Sat 09:47:00 AM 39.9655 -83.3089 238° Southwest  Level Estimated
Sat 09:47:12 AM 39.8644 -83.4731 236° Southwest 105 121 4,500  Level Indianapolis Center
Sat 09:47:33 AM 39.8575 -83.4886 240° Southwest 102 117 4,500 97 Level Indianapolis Center
Sat 09:48:14 AM 39.8500 -83.5089 244° Southwest 101 116 4,600  Climbing Indianapolis Center
Sat 09:48:34 AM 39.8447 -83.5197 238° Southwest 98 113 4,500 -97 Descending Indianapolis Center
Sat 09:49:16 AM 39.8358 -83.5411 242° Southwest 101 116 4,500  Level Indianapolis Center
Sat 09:49:34 AM 39.8381 -83.5514 286° West 127 146 4,500  Level Indianapolis Center
Sat 09:50:17 AM 39.8208 -83.5739 225° Southwest 103 119 4,500 -90 Level Indianapolis Center
Sat 09:50:41 AM 39.8122 -83.5917 238° Southwest 126 145 4,400 -97 Descending Indianapolis Center
Sat 09:51:19 AM 39.8056 -83.6061 239° Southwest 104 120 4,400  Level Indianapolis Center
Sat 09:51:42 AM 39.7972 -83.6225 237° Southwest 96 110 4,400  Level Indianapolis Center
Sat 09:52:21 AM 39.7900 -83.6381 239° Southwest 104 120 4,400  Level Indianapolis Center
Sat 09:52:49 AM 39.7822 -83.6558 240° Southwest 99 114 4,400  Level Indianapolis Center
Sat 09:53:22 AM 39.7758 -83.6692 238° Southwest 102 117 4,400  Level Indianapolis Center
Sat 09:53:50 AM 39.7672 -83.6892 241° Southwest 103 119 4,400 97 Level Indianapolis Center
Sat 09:54:24 AM 39.7597 -83.7067 241° Southwest 101 116 4,500 98 Climbing Indianapolis Center
Sat 09:54:51 AM 39.7542 -83.7231 246° West 99 114 4,500  Level Indianapolis Center
Sat 09:55:26 AM 39.7467 -83.7392 239° Southwest 100 115 4,500 -100 Level Indianapolis Center
Sat 09:55:51 AM 39.7414 -83.7539 245° Southwest 100 115 4,400 -98 Descending Indianapolis Center
Sat 09:56:27 AM 39.7331 -83.7711 238° Southwest 100 115 4,400  Level Indianapolis Center
Sat 09:56:46 AM 39.7286 -83.7847 247° West 101 116 4,400  Level Indianapolis Center
Sat 09:57:29 AM 39.7186 -83.8039 236° Southwest 102 117 4,400  Level Indianapolis Center
Sat 09:58:31 AM 39.7053 -83.8372 243° Southwest 103 119 4,400  Level Indianapolis Center
Sat 09:59:49 AM 39.6881 -83.8800 242° Southwest 99 114 4,400  Level Indianapolis Center
Sat 10:00:43 AM 39.6733 -83.9053 233° Southwest 97 112 4,400  Level Indianapolis Center

Login

Don't have an account? Register now (free) for customized features, flight alerts, and more!